Time;durP1;ratioP1;P1;durP2;ratioP2;P2;SDS_P1;SDS_P2;PMS_P1;PMS_P2;Temp;Humidity;BMP_temperature;BMP_pressure;BME280_temperature;BME280_humidity;BME280_pressure;Samples;Min_cycle;Max_cycle;Signal;HPM_P1;HPM_P2
2023/04/17 00:09:52;;;;;;;3.10;2.00;;;;;;;9.24;100.00;100849.97;31319217;28;20567;-79
2023/04/17 00:24:54;;;;;;;3.43;1.97;;;;;;;9.19;100.00;100852.34;31323108;28;20110;-78
2023/04/17 00:39:56;;;;;;;4.23;1.90;;;;;;;9.22;100.00;100833.34;31337627;28;20134;-78
2023/04/17 00:54:59;;;;;;;3.80;1.80;;;;;;;9.15;100.00;100833.38;31321932;28;20060;-77
2023/04/17 01:10:02;;;;;;;2.70;1.67;;;;;;;9.13;100.00;100808.63;31363834;28;20747;-79
2023/04/17 01:25:04;;;;;;;2.20;1.50;;;;;;;9.05;100.00;100804.38;31310504;28;20576;-78
2023/04/17 01:40:07;;;;;;;5.47;1.73;;;;;;;9.01;100.00;100800.88;31307871;28;20171;-77
2023/04/17 01:55:09;;;;;;;2.37;1.70;;;;;;;8.91;100.00;100803.63;31315591;28;20449;-78
2023/04/17 02:10:11;;;;;;;3.17;1.63;;;;;;;8.70;100.00;100804.44;31330585;28;20540;-77
2023/04/17 02:25:14;;;;;;;2.90;1.53;;;;;;;8.43;100.00;100802.13;31345730;28;20469;-77
2023/04/17 02:40:16;;;;;;;3.63;1.47;;;;;;;8.27;100.00;100801.69;31314066;28;20049;-79
2023/04/17 02:55:18;;;;;;;2.57;1.97;;;;;;;8.33;100.00;100796.69;31322610;28;20551;-78
2023/04/17 03:10:20;;;;;;;3.53;2.50;;;;;;;8.43;100.00;100806.75;31320303;28;20502;-78
2023/04/17 03:25:22;;;;;;;3.30;1.90;;;;;;;8.55;100.00;100798.25;31331605;28;20086;-78
2023/04/17 03:40:24;;;;;;;3.20;1.70;;;;;;;8.39;100.00;100785.09;31336612;28;20079;-78
2023/04/17 03:55:26;;;;;;;9.03;1.63;;;;;;;9.01;97.14;100771.09;31332534;28;20057;-79
2023/04/17 04:10:28;;;;;;;6.53;2.00;;;;;;;9.28;91.08;100767.91;31332929;28;20045;-79
2023/04/17 04:25:31;;;;;;;1.57;1.13;;;;;;;9.58;80.18;100738.38;31351664;28;20163;-79
2023/04/17 04:40:37;;;;;;;3.13;1.43;;;;;;;9.87;70.73;100749.81;31339348;28;20111;-79
2023/04/17 04:55:39;;;;;;;6.20;1.73;;;;;;;10.67;62.18;100746.84;31327499;28;20151;-81
2023/04/17 05:10:41;;;;;;;3.43;1.73;;;;;;;11.09;56.49;100745.66;31285609;28;20050;-80
2023/04/17 05:25:42;;;;;;;3.03;1.80;;;;;;;11.72;52.85;100710.66;31345714;28;20053;-79
2023/04/17 05:40:44;;;;;;;3.30;1.67;;;;;;;12.20;47.48;100723.16;31332476;28;20049;-82
2023/04/17 05:55:46;;;;;;;3.73;1.80;;;;;;;13.04;44.91;100736.41;31320079;28;20053;-80
2023/04/17 06:10:49;;;;;;;4.90;1.73;;;;;;;13.65;41.58;100731.25;31325861;28;20072;-79
2023/04/17 06:25:51;;;;;;;3.70;1.67;;;;;;;14.18;39.23;100718.31;31330067;28;20758;-81
2023/04/17 06:40:53;;;;;;;2.73;1.80;;;;;;;15.39;37.25;100719.75;31359745;28;20122;-78
2023/04/17 06:55:55;;;;;;;5.13;1.50;;;;;;;16.28;34.51;100712.31;31351880;28;20140;-78
2023/04/17 07:11:01;;;;;;;7.60;1.50;;;;;;;16.95;33.91;100693.50;31365948;28;20102;-77
2023/04/17 07:26:03;;;;;;;6.10;1.80;;;;;;;17.42;32.32;100686.28;31355391;28;20053;-78
2023/04/17 07:41:05;;;;;;;4.63;1.73;;;;;;;17.90;30.84;100671.84;31379816;28;20040;-78
2023/04/17 07:56:06;;;;;;;6.10;1.47;;;;;;;18.53;29.73;100656.59;31317107;28;20076;-79
2023/04/17 08:11:08;;;;;;;1.47;0.90;;;;;;;18.55;28.65;100621.16;31347825;28;20045;-80
2023/04/17 08:26:10;;;;;;;5.53;2.00;;;;;;;18.81;28.58;100634.59;31338535;28;20183;-77
2023/04/17 08:41:20;;;;;;;4.10;1.17;;;;;;;19.15;27.02;100605.91;31325512;28;20053;-75
2023/04/17 08:56:22;;;;;;;1.85;1.17;;;;;;;20.39;26.21;100583.22;31322168;28;20053;-75
2023/04/17 09:11:25;;;;;;;1.88;1.27;;;;;;;20.62;25.49;100579.63;31314947;28;20118;-76
2023/04/17 09:26:30;;;;;;;2.20;1.40;;;;;;;20.51;25.38;100573.94;31354516;28;20451;-80
2023/04/17 09:41:42;;;;;;;3.88;1.02;;;;;;;21.23;25.02;100566.06;31329153;28;20053;-76
2023/04/17 09:56:48;;;;;;;1.80;0.90;;;;;;;21.00;24.78;100564.94;31312423;28;20385;-76
2023/04/17 10:11:51;;;;;;;2.42;1.00;;;;;;;21.51;25.04;100585.00;31315814;28;20049;-76
2023/04/17 10:26:53;;;;;;;2.67;0.90;;;;;;;21.51;24.76;100546.31;31301948;28;20044;-76
2023/04/17 10:42:01;;;;;;;3.20;1.25;;;;;;;22.28;24.37;100584.44;31314200;28;20060;-78
2023/04/17 10:57:09;;;;;;;2.60;0.90;;;;;;;22.76;25.02;100562.47;31321713;28;20305;-79
2023/04/17 11:12:11;;;;;;;3.75;1.00;;;;;;;23.30;24.71;100538.44;31374972;28;20049;-81
2023/04/17 11:27:13;;;;;;;3.40;1.00;;;;;;;22.49;24.67;100516.72;31327355;28;20106;-79
2023/04/17 11:42:26;;;;;;;3.75;0.80;;;;;;;21.03;25.44;100513.53;31336686;28;20049;-77
2023/04/17 11:57:27;;;;;;;5.22;1.02;;;;;;;20.32;26.86;100496.09;31354225;28;20094;-79
2023/04/17 12:12:29;;;;;;;5.53;1.05;;;;;;;20.27;27.68;100477.50;31335933;28;21327;-80
2023/04/17 12:27:36;;;;;;;9.68;1.98;;;;;;;19.92;28.07;100473.88;31343992;28;20041;-78
2023/04/17 12:42:38;;;;;;;6.07;1.35;;;;;;;19.50;28.61;100476.78;31329444;28;20049;-77
2023/04/17 12:57:50;;;;;;;8.95;1.25;;;;;;;19.58;29.81;100478.00;31331880;28;20133;-78
2023/04/17 13:12:53;;;;;;;1.75;0.77;;;;;;;19.37;30.68;100491.56;31308018;28;20081;-77
2023/04/17 13:27:55;;;;;;;2.53;1.05;;;;;;;19.10;32.73;100490.97;31324587;28;20068;-77
2023/04/17 13:42:57;;;;;;;4.65;1.55;;;;;;;18.92;33.53;100492.59;31323616;28;20049;-76
2023/04/17 13:57:59;;;;;;;9.77;2.42;;;;;;;18.87;34.27;100495.22;31319320;28;20115;-77
2023/04/17 14:13:01;;;;;;;6.07;1.40;;;;;;;18.72;34.63;100495.13;31328816;28;20041;-77
2023/04/17 14:28:04;;;;;;;4.13;1.42;;;;;;;18.58;35.14;100498.53;31335725;28;20052;-79
2023/04/17 14:43:09;;;;;;;5.00;1.43;;;;;;;18.38;36.48;100491.56;31334744;28;20413;-81
2023/04/17 14:58:11;;;;;;;3.70;1.20;;;;;;;18.26;37.43;100494.47;31346306;28;20053;-85
2023/04/17 15:13:13;;;;;;;1.60;1.20;;;;;;;18.03;38.74;100493.91;31327327;28;20048;-79
2023/04/17 15:28:15;;;;;;;3.00;1.30;;;;;;;17.94;39.27;100495.91;31320979;28;20087;-78
2023/04/17 15:43:18;;;;;;;3.13;1.60;;;;;;;17.68;40.59;100490.72;31368158;28;20069;-78
2023/04/17 15:58:19;;;;;;;4.60;1.40;;;;;;;17.37;40.86;100521.00;31352337;28;20049;-79
2023/04/17 16:13:23;;;;;;;3.33;1.80;;;;;;;17.28;41.11;100526.47;31341627;28;20416;-80
2023/04/17 16:28:25;;;;;;;3.73;1.57;;;;;;;17.04;42.46;100552.91;31370642;28;20053;-79
2023/04/17 16:43:29;;;;;;;1.80;1.37;;;;;;;16.69;43.82;100555.81;31331931;28;20492;-79
2023/04/17 16:58:30;;;;;;;3.73;1.20;;;;;;;16.61;44.01;100559.22;31331113;28;20048;-80
2023/04/17 17:13:32;;;;;;;3.87;1.37;;;;;;;16.56;44.79;100579.75;31369159;28;20387;-81
2023/04/17 17:28:34;;;;;;;4.33;1.20;;;;;;;16.35;46.34;100583.28;31361172;28;20049;-81
2023/04/17 17:43:37;;;;;;;14.23;4.90;;;;;;;16.40;47.60;100596.41;31322236;28;20061;-78
2023/04/17 17:58:38;;;;;;;2.63;1.53;;;;;;;16.24;47.97;100596.59;31345464;28;20098;-75
2023/04/17 18:13:40;;;;;;;3.70;1.33;;;;;;;16.02;50.43;100582.88;31312948;28;20498;-77
2023/04/17 18:28:42;;;;;;;7.23;1.30;;;;;;;15.94;51.97;100584.31;31334804;28;20063;-74
2023/04/17 18:43:44;;;;;;;4.40;1.87;;;;;;;15.76;53.29;100573.22;31317248;28;20057;-76
2023/04/17 18:58:46;;;;;;;2.33;1.30;;;;;;;15.64;54.22;100569.28;31332210;28;20386;-77
2023/04/17 19:13:48;;;;;;;6.80;1.90;;;;;;;15.51;56.38;100568.53;31336587;28;20057;-73
2023/04/17 19:28:50;;;;;;;3.20;1.70;;;;;;;15.46;57.40;100555.41;31350551;28;20106;-76
2023/04/17 19:43:53;;;;;;;1.47;0.97;;;;;;;15.17;61.26;100556.31;31357173;28;20049;-74
2023/04/17 19:59:00;;;;;;;2.47;1.30;;;;;;;14.96;62.59;100540.56;31345875;28;20109;-75
2023/04/17 20:14:03;;;;;;;6.73;1.50;;;;;;;14.85;63.70;100534.66;31318314;28;20046;-74
2023/04/17 20:29:05;;;;;;;5.33;1.43;;;;;;;14.99;63.35;100531.50;31340850;28;20057;-75
2023/04/17 20:44:07;;;;;;;10.20;4.67;;;;;;;14.72;67.83;100518.25;31304421;28;20584;-76
2023/04/17 20:59:09;;;;;;;8.90;3.50;;;;;;;14.51;71.20;100511.47;31309247;28;20049;-74
2023/04/17 21:14:13;;;;;;;3.83;2.27;;;;;;;14.37;75.24;100506.38;31304356;28;20063;-74
2023/04/17 21:29:16;;;;;;;7.00;2.33;;;;;;;14.46;72.59;100492.88;31300976;28;20083;-74
2023/04/17 21:44:17;;;;;;;10.07;2.37;;;;;;;14.18;76.77;100505.34;31309291;28;20053;-74
2023/04/17 21:59:19;;;;;;;5.77;2.37;;;;;;;14.14;76.20;100493.00;31327676;28;20049;-72
2023/04/17 22:14:21;;;;;;;5.63;1.80;;;;;;;14.09;77.69;100477.16;31346362;28;20126;-74
2023/04/17 22:29:23;;;;;;;7.83;1.33;;;;;;;13.75;82.71;100473.00;31332627;28;20057;-73
2023/04/17 22:44:25;;;;;;;4.93;1.77;;;;;;;13.62;86.74;100458.53;31357405;28;20045;-76
2023/04/17 22:59:27;;;;;;;8.73;2.97;;;;;;;13.49;88.45;100449.53;31358948;28;20049;-76
2023/04/17 23:14:29;;;;;;;10.60;1.87;;;;;;;13.58;89.11;100447.72;31357373;28;20571;-75
2023/04/17 23:29:31;;;;;;;8.10;2.10;;;;;;;13.55;90.29;100442.34;31369401;28;20416;-75
2023/04/17 23:44:33;;;;;;;18.53;2.67;;;;;;;13.41;88.58;100421.69;31370669;28;20094;-75
2023/04/17 23:59:35;;;;;;;9.67;2.70;;;;;;;13.38;88.41;100410.88;31360640;28;20461;-73
